createdAt,value
2022-10-31T00:01:16.739Z,12.23
2022-10-31T00:03:43.522Z,11.43
2022-10-31T00:06:10.517Z,11.00
2022-10-31T00:08:37.257Z,10.70
2022-10-31T00:11:04.140Z,11.37
2022-10-31T00:13:30.825Z,11.10
2022-10-31T00:15:57.574Z,10.50
2022-10-31T00:18:24.330Z,11.30
2022-10-31T00:21:00.430Z,11.60
2022-10-31T00:23:27.301Z,9.90
2022-10-31T00:25:54.034Z,10.60
2022-10-31T00:28:20.757Z,10.90
2022-10-31T00:30:47.474Z,10.63
2022-10-31T00:33:14.228Z,11.00
2022-10-31T00:35:40.970Z,10.57
2022-10-31T00:38:07.688Z,10.83
2022-10-31T00:40:34.420Z,10.47
2022-10-31T00:43:01.551Z,10.20
2022-10-31T00:45:28.679Z,11.23
2022-10-31T00:47:55.395Z,11.03
2022-10-31T00:50:22.186Z,10.80
2022-10-31T00:52:48.871Z,9.30
2022-10-31T00:55:15.625Z,9.60
2022-10-31T00:57:42.373Z,12.03
2022-10-31T01:00:10.107Z,10.43
2022-10-31T01:02:37.048Z,10.00
2022-10-31T01:05:04.031Z,11.37
2022-10-31T01:07:30.795Z,10.93
2022-10-31T01:09:57.539Z,9.33
2022-10-31T01:12:24.272Z,9.70
2022-10-31T01:14:50.991Z,10.57
2022-10-31T01:17:17.712Z,10.80
2022-10-31T01:19:45.664Z,9.47
2022-10-31T01:22:12.418Z,10.13
2022-10-31T01:24:39.169Z,9.10
2022-10-31T01:27:05.878Z,10.43
2022-10-31T01:29:32.605Z,9.83
2022-10-31T01:31:59.287Z,12.93
2022-10-31T01:34:26.038Z,10.90
2022-10-31T01:36:53.020Z,9.80
2022-10-31T01:39:20.462Z,9.23
2022-10-31T01:41:52.896Z,9.07
2022-10-31T01:44:19.595Z,8.97
2022-10-31T01:46:52.874Z,9.47
2022-10-31T01:49:44.026Z,10.37
2022-10-31T01:52:36.437Z,9.80
2022-10-31T01:55:07.893Z,9.30
2022-10-31T01:57:36.437Z,9.43
2022-10-31T02:00:07.646Z,8.23
2022-10-31T02:02:34.484Z,8.63
2022-10-31T02:05:05.489Z,7.33
2022-10-31T02:07:48.593Z,8.23
2022-10-31T02:10:16.248Z,9.13
2022-10-31T02:12:43.817Z,7.57
2022-10-31T02:15:10.861Z,8.00
2022-10-31T02:17:37.747Z,9.00
2022-10-31T02:20:23.928Z,7.90
2022-10-31T02:23:21.835Z,8.53
2022-10-31T02:26:13.286Z,8.90
2022-10-31T02:29:01.532Z,9.20
2022-10-31T02:31:55.460Z,9.30
2022-10-31T02:34:31.916Z,8.20
2022-10-31T02:37:06.291Z,9.27
2022-10-31T02:39:44.970Z,8.47
2022-10-31T02:42:21.262Z,8.93
2022-10-31T02:45:01.432Z,7.90
2022-10-31T02:47:31.074Z,7.90
2022-10-31T02:50:00.371Z,9.27
2022-10-31T02:52:29.568Z,9.20
2022-10-31T02:54:56.455Z,7.93
2022-10-31T02:57:34.673Z,8.90
2022-10-31T03:00:09.333Z,7.57
2022-10-31T03:02:50.563Z,7.97
2022-10-31T03:05:38.521Z,7.07
2022-10-31T03:08:14.136Z,9.20
2022-10-31T03:10:57.825Z,8.53
2022-10-31T03:13:27.535Z,8.47
2022-10-31T03:16:16.954Z,9.23
2022-10-31T03:18:49.840Z,7.60
2022-10-31T03:21:35.048Z,7.00
2022-10-31T03:24:03.077Z,8.00
2022-10-31T03:26:30.743Z,7.80
2022-10-31T03:29:08.872Z,7.10
2022-10-31T03:31:40.658Z,7.60
2022-10-31T03:34:09.735Z,7.07
2022-10-31T03:36:40.649Z,7.30
2022-10-31T03:39:12.236Z,7.93
2022-10-31T03:41:44.265Z,7.50
2022-10-31T03:44:21.777Z,9.33
2022-10-31T03:46:48.531Z,7.13
2022-10-31T03:49:16.353Z,7.13
2022-10-31T03:51:57.562Z,7.83
2022-10-31T03:54:33.500Z,8.20
2022-10-31T03:57:17.929Z,7.60
2022-10-31T03:59:49.292Z,8.50
2022-10-31T04:02:19.637Z,7.97
2022-10-31T04:04:49.598Z,7.10
2022-10-31T04:07:18.621Z,7.00
2022-10-31T04:09:47.446Z,7.10
2022-10-31T04:12:16.953Z,8.00
2022-10-31T04:14:47.479Z,6.80
2022-10-31T04:17:17.395Z,5.80
2022-10-31T04:19:44.255Z,6.70
2022-10-31T04:22:11.389Z,6.23
2022-10-31T04:24:41.527Z,5.70
2022-10-31T04:27:08.407Z,8.23
2022-10-31T04:29:35.121Z,6.30
2022-10-31T04:32:01.830Z,6.80
2022-10-31T04:34:28.524Z,6.43
2022-10-31T04:36:55.221Z,6.00
2022-10-31T04:39:25.757Z,7.83
2022-10-31T04:41:53.611Z,7.63
2022-10-31T04:44:20.359Z,7.30
2022-10-31T04:46:47.169Z,6.40
2022-10-31T04:49:14.038Z,7.13
2022-10-31T04:51:40.803Z,7.00
2022-10-31T04:54:07.748Z,6.60
2022-10-31T04:56:34.451Z,5.90
2022-10-31T04:59:01.274Z,6.17
2022-10-31T05:01:29.024Z,5.60
2022-10-31T05:03:55.934Z,5.90
2022-10-31T05:06:22.725Z,6.73
2022-10-31T05:08:49.485Z,6.43
2022-10-31T05:11:16.207Z,6.73
2022-10-31T05:13:42.987Z,7.20
2022-10-31T05:16:09.843Z,6.70
2022-10-31T05:18:36.655Z,7.50
2022-10-31T05:21:03.496Z,6.20
2022-10-31T05:23:30.274Z,6.63
2022-10-31T05:25:56.959Z,7.20
2022-10-31T05:28:23.665Z,6.40
2022-10-31T05:30:50.700Z,7.07
2022-10-31T05:33:17.405Z,6.80
2022-10-31T05:35:44.145Z,6.40
2022-10-31T05:38:10.823Z,6.57
2022-10-31T05:40:37.528Z,6.33
2022-10-31T05:43:04.428Z,6.67
2022-10-31T05:45:31.114Z,7.13
2022-10-31T05:48:00.125Z,6.80
2022-10-31T05:50:29.083Z,6.97
2022-10-31T05:53:05.511Z,7.33
2022-10-31T05:55:33.262Z,6.97
2022-10-31T05:58:00.677Z,6.53
2022-10-31T06:00:28.583Z,7.07
2022-10-31T06:03:03.331Z,7.90
2022-10-31T06:05:30.771Z,8.47
2022-10-31T06:07:58.625Z,6.50
2022-10-31T06:10:27.035Z,7.77
2022-10-31T06:12:53.870Z,6.43
2022-10-31T06:15:24.094Z,6.70
2022-10-31T06:18:05.546Z,6.40
2022-10-31T06:20:33.725Z,6.80
2022-10-31T06:23:00.753Z,7.73
2022-10-31T06:25:28.222Z,8.40
2022-10-31T06:27:55.425Z,8.20
2022-10-31T06:30:22.314Z,7.47
2022-10-31T06:32:50.384Z,8.20
2022-10-31T06:35:17.521Z,8.27
2022-10-31T06:37:46.786Z,7.90
2022-10-31T06:40:16.444Z,7.60
2022-10-31T06:42:43.192Z,7.27
2022-10-31T06:45:10.012Z,7.90
2022-10-31T06:47:50.833Z,8.40
2022-10-31T06:50:24.193Z,10.03
2022-10-31T06:52:55.754Z,9.50
2022-10-31T06:55:23.662Z,9.20
2022-10-31T06:57:52.091Z,8.60
2022-10-31T07:00:19.265Z,7.20
2022-10-31T07:02:56.784Z,8.63
2022-10-31T07:05:23.784Z,8.47
2022-10-31T07:07:55.711Z,9.07
2022-10-31T07:10:23.279Z,10.20
2022-10-31T07:12:54.498Z,10.00
2022-10-31T07:15:21.310Z,8.57
2022-10-31T07:17:48.008Z,7.43
2022-10-31T07:20:14.837Z,6.70
2022-10-31T07:22:41.570Z,6.23
2022-10-31T07:25:08.690Z,6.97
2022-10-31T07:27:42.594Z,8.83
2022-10-31T07:30:12.070Z,5.80
2022-10-31T07:32:43.584Z,6.60
2022-10-31T07:35:13.126Z,5.63
2022-10-31T07:37:40.134Z,6.07
2022-10-31T07:40:09.076Z,5.13
2022-10-31T07:42:43.965Z,5.90
2022-10-31T07:45:12.992Z,5.10
2022-10-31T07:47:44.823Z,5.80
2022-10-31T07:50:15.009Z,5.60
2022-10-31T07:52:41.783Z,6.83
2022-10-31T07:55:09.639Z,5.60
2022-10-31T07:57:37.856Z,5.13
2022-10-31T08:00:09.564Z,6.50
2022-10-31T08:02:36.917Z,6.07
2022-10-31T08:05:03.838Z,5.47
2022-10-31T08:07:30.751Z,5.87
2022-10-31T08:09:57.603Z,5.07
2022-10-31T08:12:24.507Z,5.60
2022-10-31T08:14:51.351Z,4.73
2022-10-31T08:17:18.059Z,5.00
2022-10-31T08:19:44.768Z,4.77
2022-10-31T08:22:11.478Z,5.20
2022-10-31T08:27:06.061Z,7.03
2022-10-31T08:29:32.750Z,4.00
2022-10-31T08:31:59.942Z,5.50
2022-10-31T08:34:27.064Z,5.73
2022-10-31T08:36:53.825Z,8.67
2022-10-31T08:39:20.579Z,7.57
2022-10-31T08:41:47.292Z,5.30
2022-10-31T08:44:14.226Z,5.30
2022-10-31T08:46:40.959Z,5.87
2022-10-31T08:49:07.747Z,5.00
2022-10-31T08:51:34.537Z,6.10
2022-10-31T08:54:01.390Z,5.87
2022-10-31T08:56:28.158Z,7.60
2022-10-31T08:58:55.037Z,5.87
2022-10-31T09:01:21.879Z,5.83
2022-10-31T09:03:48.706Z,6.27
2022-10-31T09:06:15.683Z,6.80
2022-10-31T09:08:42.521Z,8.03
2022-10-31T09:11:09.305Z,6.50
2022-10-31T09:13:40.991Z,6.67
2022-10-31T09:16:08.502Z,7.17
2022-10-31T09:18:35.333Z,11.43
2022-10-31T09:21:02.246Z,9.97
2022-10-31T09:23:29.330Z,11.03
2022-10-31T09:25:56.786Z,9.67
2022-10-31T09:28:27.622Z,9.23
2022-10-31T09:30:55.660Z,10.33
2022-10-31T09:33:22.800Z,9.00
2022-10-31T09:35:49.936Z,9.70
2022-10-31T09:38:24.357Z,9.67
2022-10-31T09:41:29.655Z,9.80
2022-10-31T09:44:19.648Z,9.83
2022-10-31T09:47:11.340Z,9.40
2022-10-31T09:50:07.023Z,11.23
2022-10-31T09:52:36.678Z,10.40
2022-10-31T09:55:13.118Z,10.30
2022-10-31T09:57:42.237Z,10.77
2022-10-31T10:00:17.092Z,12.13
2022-10-31T10:03:05.894Z,11.40
2022-10-31T10:05:40.410Z,9.97
2022-10-31T10:08:27.548Z,10.00
2022-10-31T10:11:15.571Z,10.37
2022-10-31T10:14:23.742Z,10.90
2022-10-31T10:17:09.181Z,9.90
2022-10-31T10:19:57.735Z,10.80
2022-10-31T10:22:35.211Z,10.50
2022-10-31T10:25:13.900Z,12.57
2022-10-31T10:28:24.334Z,28.40
2022-10-31T10:31:08.820Z,16.40
2022-10-31T10:33:41.245Z,13.20
2022-10-31T10:36:15.401Z,13.07
2022-10-31T10:38:56.230Z,12.00
2022-10-31T10:41:24.859Z,14.00
2022-10-31T10:43:52.727Z,12.37
2022-10-31T10:46:44.888Z,12.17
2022-10-31T10:49:30.649Z,12.93
2022-10-31T10:52:40.392Z,12.10
2022-10-31T10:55:25.721Z,12.00
2022-10-31T10:58:05.635Z,11.93
2022-10-31T11:00:43.572Z,14.80
2022-10-31T11:03:11.683Z,14.63
2022-10-31T11:05:59.871Z,13.87
2022-10-31T11:08:31.671Z,12.90
2022-10-31T11:11:18.619Z,13.40
2022-10-31T11:13:48.205Z,13.30
2022-10-31T11:16:29.443Z,13.40
2022-10-31T11:19:27.413Z,14.93
2022-10-31T11:21:54.833Z,14.23
2022-10-31T11:24:24.258Z,13.37
2022-10-31T11:26:52.303Z,14.40
2022-10-31T11:29:25.857Z,14.03
2022-10-31T11:31:54.619Z,15.07
2022-10-31T11:34:34.145Z,14.13
2022-10-31T11:37:17.178Z,14.97
2022-10-31T11:39:54.781Z,14.13
2022-10-31T11:42:28.351Z,14.00
2022-10-31T11:44:56.619Z,14.43
2022-10-31T11:47:33.657Z,14.10
2022-10-31T11:50:09.349Z,13.60
2022-10-31T11:52:41.186Z,13.90
2022-10-31T11:55:14.004Z,17.70
2022-10-31T11:57:49.388Z,17.57
2022-10-31T12:00:34.198Z,17.47
2022-10-31T12:03:38.026Z,18.50
2022-10-31T12:06:35.416Z,17.33
2022-10-31T12:09:02.168Z,17.33
2022-10-31T12:11:44.513Z,17.43
2022-10-31T12:14:33.047Z,17.43
2022-10-31T12:17:08.121Z,17.60
2022-10-31T12:20:01.368Z,17.23
2022-10-31T12:22:40.955Z,15.73
2022-10-31T12:25:32.607Z,16.60
2022-10-31T12:28:23.908Z,14.73
2022-10-31T12:31:08.658Z,17.07
2022-10-31T12:33:53.542Z,17.10
2022-10-31T12:36:20.213Z,15.37
2022-10-31T12:39:03.299Z,15.70
2022-10-31T12:41:40.329Z,16.80
2022-10-31T12:44:20.388Z,17.40
2022-10-31T12:47:08.633Z,16.97
2022-10-31T12:49:48.624Z,17.10
2022-10-31T12:52:18.318Z,17.50
2022-10-31T12:55:15.166Z,17.63
2022-10-31T12:57:51.935Z,16.90
2022-10-31T13:00:20.812Z,17.40
2022-10-31T13:02:55.878Z,15.63
2022-10-31T13:05:37.035Z,18.40
2022-10-31T13:08:17.373Z,16.50
2022-10-31T13:10:52.121Z,17.83
2022-10-31T13:13:39.414Z,16.63
2022-10-31T13:16:18.465Z,17.23
2022-10-31T13:19:00.747Z,18.73
2022-10-31T13:21:42.397Z,16.70
2022-10-31T13:24:19.378Z,17.97
2022-10-31T13:26:58.725Z,19.60
2022-10-31T13:29:43.652Z,17.40
2022-10-31T13:32:11.433Z,18.50
2022-10-31T13:34:43.380Z,18.20
2022-10-31T13:37:22.532Z,17.17
2022-10-31T13:40:21.284Z,16.57
2022-10-31T13:42:54.869Z,16.30
2022-10-31T13:45:24.564Z,16.43
2022-10-31T13:48:20.446Z,16.87
2022-10-31T13:51:03.142Z,16.07
2022-10-31T13:53:58.481Z,16.27
2022-10-31T13:56:35.510Z,16.50
2022-10-31T13:59:11.167Z,16.53
2022-10-31T14:01:46.797Z,17.00
2022-10-31T14:04:25.523Z,17.47
2022-10-31T14:07:00.372Z,16.80
2022-10-31T14:09:34.777Z,16.77
2022-10-31T14:12:06.454Z,16.90
2022-10-31T14:14:45.465Z,16.20
2022-10-31T14:17:21.117Z,18.23
2022-10-31T14:20:17.451Z,17.53
2022-10-31T14:22:44.292Z,17.17
2022-10-31T14:25:31.523Z,17.53
2022-10-31T14:28:00.608Z,18.67
2022-10-31T14:30:29.427Z,16.13
2022-10-31T14:33:13.069Z,19.90
2022-10-31T14:36:07.688Z,18.47
2022-10-31T14:39:11.903Z,18.77
2022-10-31T14:41:53.039Z,18.90
2022-10-31T14:45:00.669Z,18.03
2022-10-31T14:47:40.422Z,18.07
2022-10-31T14:50:45.601Z,19.17
2022-10-31T14:53:23.544Z,17.67
2022-10-31T14:55:53.379Z,25.30
2022-10-31T14:58:25.241Z,21.80
2022-10-31T15:00:56.866Z,18.23
2022-10-31T15:03:39.487Z,18.07
2022-10-31T15:06:16.692Z,17.87
2022-10-31T15:08:50.193Z,18.43
2022-10-31T15:11:22.790Z,19.30
2022-10-31T15:13:54.770Z,20.67
2022-10-31T15:19:06.800Z,18.53
2022-10-31T15:21:35.509Z,19.83
2022-10-31T15:24:03.555Z,20.70
2022-10-31T15:26:38.852Z,20.23
2022-10-31T15:29:12.156Z,18.30
2022-10-31T15:31:38.895Z,18.03
2022-10-31T15:34:20.214Z,20.50
2022-10-31T15:36:50.982Z,19.43
2022-10-31T15:39:18.323Z,18.20
2022-10-31T15:41:54.442Z,18.63
2022-10-31T15:44:37.163Z,20.80
2022-10-31T15:47:16.908Z,20.00
2022-10-31T15:49:53.914Z,18.43
2022-10-31T15:52:29.828Z,18.53
2022-10-31T15:55:01.210Z,20.53
2022-10-31T15:57:28.484Z,19.93
2022-10-31T15:59:56.066Z,20.20
2022-10-31T16:02:25.473Z,19.10
2022-10-31T16:04:58.526Z,19.13
2022-10-31T16:07:26.008Z,18.20
2022-10-31T16:10:04.560Z,18.27
2022-10-31T16:12:37.277Z,17.60
2022-10-31T16:15:06.104Z,18.07
2022-10-31T16:17:33.346Z,18.50
2022-10-31T16:20:06.242Z,19.60
2022-10-31T16:22:38.432Z,18.77
2022-10-31T16:25:15.083Z,18.37
2022-10-31T16:27:54.039Z,19.40
2022-10-31T16:30:48.001Z,18.63
2022-10-31T16:33:37.736Z,17.47
2022-10-31T16:36:36.619Z,17.97
2022-10-31T16:39:04.285Z,18.73
2022-10-31T16:41:39.512Z,22.73
2022-10-31T16:44:14.116Z,28.00
2022-10-31T16:46:40.894Z,19.87
2022-10-31T16:49:10.238Z,18.53
2022-10-31T16:51:37.133Z,19.30
2022-10-31T16:54:03.946Z,18.57
2022-10-31T16:56:33.542Z,19.17
2022-10-31T16:59:03.741Z,20.57
2022-10-31T17:01:31.552Z,19.93
2022-10-31T17:03:58.578Z,18.83
2022-10-31T17:06:28.482Z,21.60
2022-10-31T17:08:55.652Z,19.37
2022-10-31T17:11:27.065Z,22.93
2022-10-31T17:13:55.445Z,22.27
2022-10-31T17:16:22.205Z,23.87
2022-10-31T17:18:49.023Z,21.13
2022-10-31T17:21:23.639Z,20.40
2022-10-31T17:23:51.797Z,21.53
2022-10-31T17:26:19.627Z,20.60
2022-10-31T17:28:46.654Z,20.17
2022-10-31T17:31:27.523Z,20.50
2022-10-31T17:34:02.198Z,18.63
2022-10-31T17:36:30.444Z,19.47
2022-10-31T17:38:57.217Z,20.10
2022-10-31T17:41:23.901Z,19.90
2022-10-31T17:44:01.283Z,19.83
2022-10-31T17:46:28.841Z,19.60
2022-10-31T17:48:55.655Z,21.33
2022-10-31T17:51:22.468Z,23.30
2022-10-31T17:53:49.233Z,20.73
2022-10-31T17:56:16.003Z,20.30
2022-10-31T17:58:43.003Z,22.00
2022-10-31T18:01:15.593Z,23.80
2022-10-31T18:03:42.442Z,21.97
2022-10-31T18:06:10.722Z,21.87
2022-10-31T18:08:39.924Z,22.97
2022-10-31T18:11:12.144Z,24.07
2022-10-31T18:13:39.301Z,20.20
2022-10-31T18:16:15.356Z,18.60
2022-10-31T18:18:42.050Z,25.63
2022-10-31T18:21:08.979Z,21.43
2022-10-31T18:23:35.754Z,21.90
2022-10-31T18:26:02.786Z,18.37
2022-10-31T18:28:29.630Z,20.43
2022-10-31T18:31:00.482Z,24.40
2022-10-31T18:33:27.650Z,23.97
2022-10-31T18:35:54.704Z,23.13
2022-10-31T18:38:21.709Z,22.67
2022-10-31T18:40:48.454Z,22.43
2022-10-31T18:43:15.217Z,21.93
2022-10-31T18:45:46.972Z,20.17
2022-10-31T18:48:15.903Z,20.90
2022-10-31T18:50:43.439Z,20.17
2022-10-31T18:53:10.701Z,19.20
2022-10-31T18:55:45.387Z,19.53
2022-10-31T18:58:16.520Z,20.40
2022-10-31T19:00:43.404Z,21.90
2022-10-31T19:03:10.375Z,20.37
2022-10-31T19:05:37.212Z,22.77
2022-10-31T19:08:04.433Z,21.73
2022-10-31T19:10:31.281Z,22.50
2022-10-31T19:12:58.251Z,22.90
2022-10-31T19:15:26.068Z,22.83
2022-10-31T19:17:52.884Z,25.43
2022-10-31T19:20:19.605Z,23.70
2022-10-31T19:22:46.410Z,23.70
2022-10-31T19:25:13.160Z,24.10
2022-10-31T19:27:40.162Z,26.20
2022-10-31T19:30:07.731Z,24.47
2022-10-31T19:32:34.875Z,22.80
2022-10-31T19:35:01.683Z,21.60
2022-10-31T19:37:28.731Z,23.27
2022-10-31T19:39:55.487Z,21.00
2022-10-31T19:42:22.262Z,22.23
2022-10-31T19:44:48.988Z,22.47
2022-10-31T19:47:15.898Z,23.47
2022-10-31T19:49:42.759Z,21.77
2022-10-31T19:52:09.528Z,22.83
2022-10-31T19:54:36.203Z,22.47
2022-10-31T19:57:02.939Z,23.17
2022-10-31T19:59:29.591Z,23.30
2022-10-31T20:01:56.386Z,22.03
2022-10-31T20:04:23.158Z,22.37
2022-10-31T20:06:50.070Z,22.53
2022-10-31T20:09:17.057Z,25.30
2022-10-31T20:11:45.568Z,24.10
2022-10-31T20:14:17.625Z,27.53
2022-10-31T20:16:45.357Z,28.30
2022-10-31T20:19:12.110Z,28.00
2022-10-31T20:21:40.961Z,27.30
2022-10-31T20:24:09.681Z,27.77
2022-10-31T20:26:38.155Z,28.80
2022-10-31T20:29:05.189Z,31.63
2022-10-31T20:31:34.703Z,30.63
2022-10-31T20:34:01.870Z,29.93
2022-10-31T20:36:31.423Z,29.67
2022-10-31T20:38:58.812Z,31.53
2022-10-31T20:41:25.947Z,31.97
2022-10-31T20:43:52.823Z,32.10
2022-10-31T20:46:23.427Z,33.80
2022-10-31T20:48:50.513Z,33.47
2022-10-31T20:51:22.714Z,31.30
2022-10-31T20:53:53.397Z,30.53
2022-10-31T20:56:22.262Z,24.97
2022-10-31T20:58:49.850Z,24.03
2022-10-31T21:01:19.523Z,22.17
2022-10-31T21:03:47.119Z,17.87
2022-10-31T21:06:14.873Z,19.23
2022-10-31T21:08:43.030Z,18.10
2022-10-31T21:11:12.200Z,18.53
2022-10-31T21:13:41.390Z,17.97
2022-10-31T21:16:13.722Z,16.57
2022-10-31T21:18:42.322Z,22.67
2022-10-31T21:21:18.555Z,15.80
2022-10-31T21:23:46.138Z,17.23
2022-10-31T21:26:23.706Z,18.37
2022-10-31T21:28:52.818Z,18.23
2022-10-31T21:31:19.786Z,20.20
2022-10-31T21:33:47.345Z,19.03
2022-10-31T21:36:14.844Z,20.10
2022-10-31T21:38:41.893Z,19.50
2022-10-31T21:41:13.918Z,18.60
2022-10-31T21:43:42.963Z,18.97
2022-10-31T21:46:19.069Z,20.03
2022-10-31T21:48:46.496Z,21.80
2022-10-31T21:51:15.614Z,20.80
2022-10-31T21:54:01.233Z,18.73
2022-10-31T21:56:28.424Z,19.77
2022-10-31T21:58:55.595Z,20.67
2022-10-31T22:01:29.622Z,19.13
2022-10-31T22:03:57.187Z,19.93
2022-10-31T22:06:26.669Z,21.07
2022-10-31T22:08:54.673Z,21.10
2022-10-31T22:11:21.724Z,20.50
2022-10-31T22:13:49.993Z,21.87
2022-10-31T22:16:21.653Z,21.63
2022-10-31T22:18:53.220Z,23.90
2022-10-31T22:21:23.772Z,19.70
2022-10-31T22:24:01.900Z,22.77
2022-10-31T22:26:32.461Z,25.17
2022-10-31T22:29:02.359Z,24.07
2022-10-31T22:31:31.055Z,21.17
2022-10-31T22:33:58.525Z,20.70
2022-10-31T22:36:28.150Z,22.40
2022-10-31T22:38:55.034Z,23.30
2022-10-31T22:41:24.265Z,23.50
2022-10-31T22:43:51.128Z,22.40
2022-10-31T22:46:20.402Z,24.53
2022-10-31T22:48:53.690Z,22.67
2022-10-31T22:51:26.033Z,21.03
2022-10-31T22:53:53.265Z,23.37
2022-10-31T22:56:22.199Z,20.77
2022-10-31T22:58:49.582Z,19.57
2022-10-31T23:01:19.020Z,20.47
2022-10-31T23:03:46.598Z,20.83
2022-10-31T23:06:20.250Z,19.93
2022-10-31T23:08:48.133Z,20.37
2022-10-31T23:11:17.826Z,21.13
2022-10-31T23:14:07.412Z,20.50
2022-10-31T23:16:35.271Z,26.90
2022-10-31T23:19:07.637Z,21.10
2022-10-31T23:21:56.332Z,20.60
2022-10-31T23:24:28.028Z,21.63
2022-10-31T23:27:09.220Z,19.27
2022-10-31T23:29:35.980Z,18.60
2022-10-31T23:32:03.774Z,21.17
2022-10-31T23:34:30.659Z,21.00
2022-10-31T23:36:57.576Z,20.37
2022-10-31T23:39:25.237Z,20.70
2022-10-31T23:41:52.334Z,19.47
2022-10-31T23:44:19.132Z,18.03
2022-10-31T23:46:46.025Z,19.03
2022-10-31T23:49:12.866Z,19.17
2022-10-31T23:51:40.059Z,18.80
2022-10-31T23:54:06.942Z,18.20
2022-10-31T23:56:33.887Z,18.20
2022-10-31T23:59:00.810Z,18.77
